Time;durP1;ratioP1;P1;durP2;ratioP2;P2;SDS_P1;SDS_P2;PMS_P1;PMS_P2;Temp;Humidity;BMP_temperature;BMP_pressure;BME280_temperature;BME280_humidity;BME280_pressure;Samples;Min_cycle;Max_cycle;Signal;HPM_P1;HPM_P2
2022/12/05 00:01:19;;;;;;;27.13;18.57;;;;;;;8.03;100.00;100564.38;5093201;28;20573;-73
2022/12/05 00:03:49;;;;;;;23.80;15.83;;;;;;;7.89;100.00;100563.56;5093142;28;20201;-73
2022/12/05 00:06:16;;;;;;;21.83;15.23;;;;;;;7.86;100.00;100561.84;5093366;28;20198;-74
2022/12/05 00:08:44;;;;;;;28.30;19.03;;;;;;;8.00;100.00;100554.06;5093066;28;20209;-74
2022/12/05 00:11:13;;;;;;;33.60;23.57;;;;;;;8.12;100.00;100555.75;5092327;28;20226;-73
2022/12/05 00:13:41;;;;;;;51.33;30.70;;;;;;;8.06;100.00;100545.41;5092668;28;20195;-72
2022/12/05 00:16:09;;;;;;;47.57;28.33;;;;;;;8.07;100.00;100549.72;5092068;28;20203;-74
2022/12/05 00:18:36;;;;;;;34.87;21.73;;;;;;;7.99;100.00;100549.75;5092441;28;20304;-73
2022/12/05 00:21:05;;;;;;;33.60;20.20;;;;;;;8.00;100.00;100552.34;5092541;28;20233;-72
2022/12/05 00:23:32;;;;;;;33.53;19.53;;;;;;;7.93;100.00;100560.09;5092639;28;20206;-73
2022/12/05 00:26:02;;;;;;;44.27;24.57;;;;;;;8.03;100.00;100552.31;5092534;28;20279;-73
2022/12/05 00:28:30;;;;;;;26.93;19.17;;;;;;;7.91;100.00;100544.56;5094380;28;20199;-72
2022/12/05 00:30:57;;;;;;;33.57;19.83;;;;;;;7.81;100.00;100549.75;5112687;28;20222;-75
2022/12/05 00:33:24;;;;;;;36.53;21.00;;;;;;;7.90;100.00;100545.44;5112571;28;20285;-73
2022/12/05 00:35:51;;;;;;;34.50;19.93;;;;;;;7.85;100.00;100551.50;5112771;28;20213;-71
2022/12/05 00:38:19;;;;;;;21.30;14.97;;;;;;;7.91;100.00;100551.47;5112840;28;20202;-72
2022/12/05 00:40:46;;;;;;;22.27;15.27;;;;;;;7.83;100.00;100548.91;5112856;28;20199;-72
2022/12/05 00:43:13;;;;;;;21.80;14.43;;;;;;;7.79;100.00;100543.75;5112529;28;20198;-62
2022/12/05 00:45:40;;;;;;;26.40;16.50;;;;;;;7.80;100.00;100543.72;5112288;28;20591;-62
2022/12/05 00:48:07;;;;;;;26.03;16.17;;;;;;;7.97;100.00;100548.88;5112631;28;20200;-63
2022/12/05 00:50:34;;;;;;;27.40;18.00;;;;;;;8.08;100.00;100548.88;5112616;28;20736;-62
2022/12/05 00:53:01;;;;;;;26.30;16.33;;;;;;;7.97;100.00;100547.16;5112107;28;20197;-62
2022/12/05 00:55:29;;;;;;;17.83;13.70;;;;;;;7.93;100.00;100555.78;5112268;27;20205;-62
2022/12/05 00:57:56;;;;;;;19.13;14.80;;;;;;;7.98;100.00;100548.88;5112011;28;20194;-62
2022/12/05 01:00:23;;;;;;;18.80;14.07;;;;;;;7.91;100.00;100561.81;5112043;28;20658;-63
2022/12/05 01:02:50;;;;;;;19.43;14.03;;;;;;;7.99;100.00;100558.38;5112117;28;20209;-63
2022/12/05 01:05:17;;;;;;;18.27;12.53;;;;;;;7.94;100.00;100554.91;5112137;28;20194;-62
2022/12/05 01:07:43;;;;;;;17.67;12.83;;;;;;;7.91;100.00;100544.56;5112076;28;20282;-62
2022/12/05 01:10:10;;;;;;;25.27;16.17;;;;;;;8.10;100.00;100548.00;5111731;28;20678;-63
2022/12/05 01:12:39;;;;;;;18.33;12.80;;;;;;;8.10;100.00;100547.16;5111865;28;20201;-62
2022/12/05 01:15:07;;;;;;;16.07;12.43;;;;;;;8.07;100.00;100542.84;5111726;28;20202;-61
2022/12/05 01:17:35;;;;;;;16.13;11.33;;;;;;;8.02;100.00;100532.50;5111365;28;20689;-62
2022/12/05 01:20:02;;;;;;;15.67;12.03;;;;;;;8.05;100.00;100541.97;5111032;28;20287;-62
2022/12/05 01:22:28;;;;;;;14.37;11.80;;;;;;;8.11;100.00;100538.53;5112131;28;20563;-72
2022/12/05 01:24:57;;;;;;;17.70;12.27;;;;;;;8.22;100.00;100547.13;5111545;28;20198;-70
2022/12/05 01:27:23;;;;;;;19.07;12.87;;;;;;;8.11;100.00;100541.13;5111431;28;20209;-71
2022/12/05 01:29:52;;;;;;;19.17;13.97;;;;;;;8.01;100.00;100543.69;5111500;28;20194;-71
2022/12/05 01:32:19;;;;;;;19.43;13.77;;;;;;;7.88;100.00;100542.00;5111451;28;20228;-72
2022/12/05 01:34:45;;;;;;;13.77;12.07;;;;;;;7.82;100.00;100530.81;5111516;28;20190;-71
2022/12/05 01:37:12;;;;;;;17.77;12.50;;;;;;;7.75;100.00;100539.44;5111318;28;20199;-73
2022/12/05 01:39:39;;;;;;;17.13;12.37;;;;;;;7.81;100.00;100532.53;5111686;28;20281;-72
2022/12/05 01:42:06;;;;;;;15.23;11.63;;;;;;;7.91;100.00;100526.47;5111293;28;20678;-62
2022/12/05 01:45:07;;;;;;;15.03;11.30;;;;;;;7.91;100.00;100521.31;5111360;28;20730;-63
2022/12/05 01:47:36;;;;;;;19.23;11.60;;;;;;;8.02;100.00;100532.50;5110988;28;20198;-62
2022/12/05 01:50:04;;;;;;;15.83;11.57;;;;;;;7.98;100.00;100523.03;5111039;28;20667;-62
2022/12/05 01:52:33;;;;;;;15.53;11.97;;;;;;;7.96;100.00;100521.31;5110901;28;20241;-62
2022/12/05 01:55:06;;;;;;;16.40;12.57;;;;;;;8.06;100.00;100510.09;5110829;28;20198;-63
2022/12/05 01:57:33;;;;;;;18.57;12.47;;;;;;;8.09;100.00;100514.41;5110991;28;20692;-62
2022/12/05 02:00:05;;;;;;;16.70;12.47;;;;;;;8.14;100.00;100512.63;5110813;28;20409;-62
2022/12/05 02:02:33;;;;;;;19.83;13.80;;;;;;;8.10;100.00;100519.56;5110900;28;20202;-63
2022/12/05 02:05:05;;;;;;;16.93;13.30;;;;;;;8.03;100.00;100516.13;5110871;28;20207;-73
2022/12/05 02:07:33;;;;;;;17.10;13.23;;;;;;;8.19;100.00;100513.50;5111355;28;20327;-73
2022/12/05 02:10:01;;;;;;;18.83;13.40;;;;;;;8.20;100.00;100515.22;5111009;28;20206;-73
2022/12/05 02:12:27;;;;;;;20.23;15.43;;;;;;;8.21;100.00;100515.22;5110698;28;20223;-72
2022/12/05 02:15:10;;;;;;;18.30;13.10;;;;;;;8.11;100.00;100517.84;5110584;28;20195;-73
2022/12/05 02:17:51;;;;;;;17.53;12.93;;;;;;;8.27;100.00;100509.16;5110383;28;20684;-71
2022/12/05 02:20:35;;;;;;;16.27;12.40;;;;;;;8.25;100.00;100516.03;5110043;28;20710;-72
2022/12/05 02:23:39;;;;;;;17.93;12.60;;;;;;;8.07;100.00;100516.13;5110205;28;20209;-74
2022/12/05 02:26:34;;;;;;;23.50;12.33;;;;;;;7.90;100.00;100495.50;5110300;28;20202;-74
2022/12/05 02:29:33;;;;;;;18.00;13.60;;;;;;;8.09;100.00;100504.91;5110636;28;20659;-74
2022/12/05 02:32:06;;;;;;;23.63;13.33;;;;;;;8.01;100.00;100509.25;5110138;28;20230;-75
2022/12/05 02:34:44;;;;;;;16.97;13.33;;;;;;;8.09;100.00;100507.50;5110814;28;20635;-74
2022/12/05 02:37:18;;;;;;;18.53;13.20;;;;;;;8.12;100.00;100509.22;5110631;27;20202;-73
2022/12/05 02:39:52;;;;;;;20.50;14.03;;;;;;;8.13;100.00;100511.78;5110526;28;20284;-73
2022/12/05 02:42:26;;;;;;;18.80;13.50;;;;;;;8.15;100.00;100497.13;5110244;28;20672;-73
2022/12/05 02:44:58;;;;;;;18.70;13.17;;;;;;;8.15;100.00;100501.44;5110129;28;20205;-72
2022/12/05 02:47:30;;;;;;;20.13;14.17;;;;;;;8.15;100.00;100502.28;5110428;28;20225;-72
2022/12/05 02:49:59;;;;;;;21.10;14.83;;;;;;;8.12;100.00;100504.06;5110507;28;20198;-72
2022/12/05 02:52:27;;;;;;;22.70;15.13;;;;;;;8.11;100.00;100498.00;5110350;28;20226;-73
2022/12/05 02:54:55;;;;;;;20.60;14.70;;;;;;;8.24;100.00;100501.44;5110138;28;20191;-73
2022/12/05 02:57:23;;;;;;;21.73;14.37;;;;;;;8.36;100.00;100502.25;5110586;28;20602;-73
2022/12/05 02:59:50;;;;;;;19.13;14.57;;;;;;;8.40;100.00;100505.69;5110321;28;20199;-73
2022/12/05 03:02:27;;;;;;;21.67;14.90;;;;;;;8.50;100.00;100501.31;5110316;28;20195;-74
2022/12/05 03:04:57;;;;;;;19.80;14.00;;;;;;;8.43;100.00;100504.81;5110385;28;20569;-74
2022/12/05 03:07:27;;;;;;;18.30;13.93;;;;;;;8.45;100.00;100508.28;5110157;28;20194;-74
2022/12/05 03:09:59;;;;;;;18.87;13.17;;;;;;;8.40;100.00;100510.88;5109974;28;20194;-73
2022/12/05 03:12:29;;;;;;;18.60;13.53;;;;;;;8.46;100.00;100512.56;5109968;28;20245;-73
2022/12/05 03:15:00;;;;;;;16.10;12.60;;;;;;;8.42;100.00;100509.13;5109910;28;20568;-72
2022/12/05 03:17:34;;;;;;;21.23;14.50;;;;;;;8.43;100.00;100517.75;5110090;28;20583;-72
2022/12/05 03:20:09;;;;;;;22.73;13.43;;;;;;;8.50;100.00;100522.03;5109662;28;20621;-73
2022/12/05 03:22:40;;;;;;;18.27;13.90;;;;;;;8.46;100.00;100528.97;5110012;28;20285;-73
2022/12/05 03:25:09;;;;;;;20.00;13.97;;;;;;;8.30;100.00;100519.50;5109866;28;20694;-72
2022/12/05 03:27:47;;;;;;;19.43;14.77;;;;;;;8.44;100.00;100517.75;5112659;28;20202;-72
2022/12/05 03:30:16;;;;;;;19.23;13.67;;;;;;;8.47;100.00;100512.53;5113605;28;20662;-72
2022/12/05 03:32:51;;;;;;;17.80;12.93;;;;;;;8.47;100.00;100512.53;5113237;28;20238;-73
2022/12/05 03:35:23;;;;;;;15.87;11.60;;;;;;;8.50;100.00;100511.69;5114127;28;20662;-72
2022/12/05 03:37:55;;;;;;;16.07;11.97;;;;;;;8.51;100.00;100516.84;5113978;28;20202;-73
2022/12/05 03:40:32;;;;;;;16.07;11.63;;;;;;;8.45;100.00;100516.03;5114136;28;20251;-72
2022/12/05 03:43:09;;;;;;;15.33;11.17;;;;;;;8.48;100.00;100514.28;5113863;28;20198;-73
2022/12/05 03:45:44;;;;;;;18.20;11.07;;;;;;;8.33;100.00;100496.25;5113691;28;20198;-74
2022/12/05 03:48:18;;;;;;;12.70;10.77;;;;;;;8.49;100.00;100521.16;5113478;28;20198;-74
2022/12/05 03:50:48;;;;;;;14.20;11.27;;;;;;;8.43;100.00;100520.34;5113560;28;20586;-72
2022/12/05 03:53:19;;;;;;;14.50;11.27;;;;;;;8.35;100.00;100512.63;5113255;27;20226;-72
2022/12/05 03:55:53;;;;;;;17.10;11.10;;;;;;;8.20;100.00;100512.63;5113953;28;20199;-73
2022/12/05 03:58:26;;;;;;;16.33;11.30;;;;;;;8.29;100.00;100510.88;5113745;28;20199;-73
2022/12/05 04:00:57;;;;;;;17.00;12.80;;;;;;;8.31;100.00;100521.22;5113379;27;20195;-73
2022/12/05 04:03:37;;;;;;;14.73;11.17;;;;;;;8.25;100.00;100492.78;5113357;28;20666;-70
2022/12/05 04:06:08;;;;;;;13.80;11.20;;;;;;;8.36;100.00;100512.59;5113549;28;20201;-72
2022/12/05 04:08:42;;;;;;;13.97;11.43;;;;;;;8.26;100.00;100510.00;5113616;28;20205;-73
2022/12/05 04:11:14;;;;;;;16.50;11.93;;;;;;;8.24;100.00;100509.19;5113018;28;20285;-73
2022/12/05 04:13:46;;;;;;;13.37;11.30;;;;;;;8.21;100.00;100507.47;5113439;28;20600;-71
2022/12/05 04:19:10;;;;;;;15.07;11.63;;;;;;;8.21;100.00;100504.88;5112921;28;20245;-71
2022/12/05 04:21:42;;;;;;;14.53;12.33;;;;;;;8.25;100.00;100505.69;5111835;28;20187;-73
2022/12/05 04:27:09;;;;;;;17.93;10.43;;;;;;;8.28;100.00;100506.56;5090562;28;20252;-72
2022/12/05 04:29:45;;;;;;;17.30;10.97;;;;;;;8.24;100.00;100507.44;5090997;28;20318;-72
2022/12/05 04:32:14;;;;;;;15.83;11.20;;;;;;;8.17;100.00;100512.63;5103759;28;20236;-73
2022/12/05 04:34:52;;;;;;;12.97;10.43;;;;;;;8.16;100.00;100506.59;5110099;28;20210;-73
2022/12/05 04:37:25;;;;;;;16.67;12.37;;;;;;;8.19;100.00;100508.31;5110797;28;20194;-73
2022/12/05 04:39:58;;;;;;;17.40;11.00;;;;;;;8.24;100.00;100504.00;5111632;28;20205;-74
2022/12/05 04:42:29;;;;;;;17.07;11.87;;;;;;;8.29;100.00;100515.19;5111372;28;20214;-74
2022/12/05 04:45:03;;;;;;;16.20;11.63;;;;;;;8.31;100.00;100505.69;5111696;28;20201;-74
2022/12/05 04:47:35;;;;;;;16.77;12.37;;;;;;;8.26;100.00;100497.94;5111452;28;20194;-74
2022/12/05 04:50:06;;;;;;;16.67;12.33;;;;;;;8.31;100.00;100505.69;5110293;28;20222;-63
2022/12/05 04:52:34;;;;;;;21.13;13.87;;;;;;;8.29;100.00;100513.47;5108570;28;20219;-63
2022/12/05 04:55:07;;;;;;;19.67;14.20;;;;;;;8.41;100.00;100514.31;5106839;28;20190;-63
2022/12/05 04:57:40;;;;;;;16.33;12.27;;;;;;;8.33;100.00;100509.19;5108985;28;20198;-63
2022/12/05 05:00:08;;;;;;;21.53;13.20;;;;;;;8.35;100.00;100512.63;5122952;28;20242;-63
2022/12/05 05:02:54;;;;;;;18.17;13.03;;;;;;;8.39;100.00;100519.47;5129493;27;20190;-63
2022/12/05 05:05:23;;;;;;;19.53;13.50;;;;;;;8.44;100.00;100522.94;5117971;28;20204;-63
2022/12/05 05:07:52;;;;;;;18.90;13.17;;;;;;;8.49;100.00;100515.13;5114566;28;20205;-63
2022/12/05 05:10:26;;;;;;;20.00;13.63;;;;;;;8.45;100.00;100522.06;5110296;28;20624;-63
2022/12/05 05:12:54;;;;;;;18.37;12.57;;;;;;;8.45;100.00;100524.66;5111131;28;20222;-64
2022/12/05 05:15:21;;;;;;;19.47;12.40;;;;;;;8.40;100.00;100520.34;5110148;28;20209;-62
2022/12/05 05:17:48;;;;;;;17.93;12.80;;;;;;;8.41;100.00;100515.16;5088826;28;20229;-62
2022/12/05 05:20:24;;;;;;;19.03;12.80;;;;;;;8.40;100.00;100520.34;5047718;28;1193073;-60
2022/12/05 05:22:53;;;;;;;22.13;12.63;;;;;;;8.36;100.00;100519.50;5089898;28;20536;-61
2022/12/05 05:25:21;;;;;;;20.40;12.43;;;;;;;8.32;100.00;100510.91;5089930;28;20229;-62
2022/12/05 05:27:50;;;;;;;18.83;12.90;;;;;;;8.35;100.00;100515.22;5089467;28;20223;-60
2022/12/05 05:30:17;;;;;;;21.30;13.43;;;;;;;8.38;100.00;100517.75;5101541;28;20229;-63
2022/12/05 05:32:44;;;;;;;26.43;13.47;;;;;;;8.43;100.00;100513.44;5110607;28;20227;-61
2022/12/05 05:35:12;;;;;;;20.47;13.50;;;;;;;8.41;100.00;100516.91;5110352;28;20203;-63
2022/12/05 05:37:39;;;;;;;27.63;16.53;;;;;;;8.30;100.00;100515.19;5110787;28;20198;-64
2022/12/05 05:40:09;;;;;;;27.87;18.50;;;;;;;8.29;100.00;100521.22;5111112;28;20618;-63
2022/12/05 05:42:36;;;;;;;31.93;16.93;;;;;;;8.26;100.00;100515.19;5110472;28;20253;-63
2022/12/05 05:45:04;;;;;;;29.20;15.97;;;;;;;8.26;100.00;100522.94;5110974;28;20202;-63
2022/12/05 05:47:31;;;;;;;22.97;14.77;;;;;;;8.29;100.00;100517.78;5110669;28;20194;-63
2022/12/05 05:49:58;;;;;;;21.50;14.37;;;;;;;8.25;100.00;100523.81;5109098;28;20191;-64
2022/12/05 05:52:25;;;;;;;23.33;13.90;;;;;;;8.28;100.00;100526.38;5109603;28;20221;-63
2022/12/05 05:54:52;;;;;;;25.20;13.40;;;;;;;8.28;100.00;100523.81;5109621;28;20202;-63
2022/12/05 05:57:20;;;;;;;23.47;13.33;;;;;;;8.21;100.00;100519.53;5109530;28;20209;-63
2022/12/05 05:59:47;;;;;;;29.17;14.73;;;;;;;8.19;100.00;100522.13;5109778;27;20190;-63
2022/12/05 06:02:13;;;;;;;23.37;14.00;;;;;;;8.16;100.00;100527.28;5109946;28;20201;-63
2022/12/05 06:04:40;;;;;;;21.13;13.20;;;;;;;8.16;100.00;100529.00;5110720;28;20311;-62
2022/12/05 06:07:07;;;;;;;18.73;12.90;;;;;;;8.16;100.00;100526.44;5110436;28;20213;-63
2022/12/05 06:09:34;;;;;;;25.90;15.53;;;;;;;8.20;100.00;100523.84;5110859;28;20191;-63
2022/12/05 06:12:01;;;;;;;25.20;15.17;;;;;;;8.20;100.00;100533.31;5110516;28;20606;-62
2022/12/05 06:14:29;;;;;;;24.63;16.17;;;;;;;8.19;100.00;100544.53;5110580;28;20201;-63
2022/12/05 06:16:56;;;;;;;24.93;15.10;;;;;;;8.13;100.00;100542.81;5110576;28;20277;-63
2022/12/05 06:19:23;;;;;;;26.87;15.60;;;;;;;8.21;100.00;100545.38;5109805;28;20222;-62
2022/12/05 06:21:50;;;;;;;29.53;16.83;;;;;;;8.19;100.00;100547.13;5109133;28;20201;-63
2022/12/05 06:24:18;;;;;;;21.70;13.30;;;;;;;8.13;100.00;100541.94;5108707;28;20197;-62
2022/12/05 06:26:44;;;;;;;27.50;12.97;;;;;;;7.97;100.00;100554.91;5109290;28;20199;-63
2022/12/05 06:29:11;;;;;;;33.23;13.67;;;;;;;8.03;100.00;100552.31;5108860;28;20528;-63
2022/12/05 06:31:42;;;;;;;23.27;12.80;;;;;;;8.08;100.00;100554.03;5108745;28;20201;-62
2022/12/05 06:34:08;;;;;;;29.07;12.97;;;;;;;8.14;100.00;100560.03;5108772;28;20303;-62
2022/12/05 06:36:36;;;;;;;40.80;14.20;;;;;;;8.06;100.00;100559.22;5108917;27;20217;-62
2022/12/05 06:39:03;;;;;;;39.93;14.03;;;;;;;8.19;100.00;100571.25;5108411;28;20201;-73
2022/12/05 06:41:30;;;;;;;27.73;13.33;;;;;;;8.23;100.00;100569.53;5108505;28;20236;-73
2022/12/05 06:43:59;;;;;;;30.80;13.13;;;;;;;8.21;100.00;100573.84;5108679;28;20218;-73
2022/12/05 06:46:26;;;;;;;33.10;15.07;;;;;;;8.24;100.00;100579.00;5108774;28;20195;-72
2022/12/05 06:48:55;;;;;;;39.17;15.37;;;;;;;8.36;100.00;100573.81;5108572;28;20203;-73
2022/12/05 06:51:24;;;;;;;33.60;14.83;;;;;;;8.34;100.00;100583.34;5106243;28;20269;-73
2022/12/05 06:53:51;;;;;;;41.10;15.37;;;;;;;8.43;100.00;100585.03;5108667;28;20264;-73
2022/12/05 06:56:19;;;;;;;40.03;16.43;;;;;;;8.48;100.00;100584.13;5108440;28;20190;-72
2022/12/05 06:58:48;;;;;;;32.33;14.47;;;;;;;8.60;100.00;100581.50;5108399;28;20191;-73
2022/12/05 07:04:02;;;;;;;34.57;16.37;;;;;;;8.52;100.00;100590.16;5097525;28;20191;-73
2022/12/05 07:06:29;;;;;;;32.93;16.03;;;;;;;8.64;100.00;100593.56;5108720;28;20650;-73
2022/12/05 07:08:56;;;;;;;40.87;16.27;;;;;;;8.65;100.00;100587.53;5108652;28;20201;-73
2022/12/05 07:11:23;;;;;;;40.03;16.43;;;;;;;8.68;100.00;100600.47;5108138;28;20197;-73
2022/12/05 07:13:50;;;;;;;37.23;16.70;;;;;;;8.79;100.00;100596.97;5108507;28;20225;-72
2022/12/05 07:16:16;;;;;;;35.97;17.27;;;;;;;8.87;100.00;100601.25;5108156;28;20195;-64
2022/12/05 07:18:43;;;;;;;35.77;17.30;;;;;;;8.86;100.00;100589.16;5108336;28;20662;-63
2022/12/05 07:21:14;;;;;;;35.80;19.70;;;;;;;8.92;100.00;100602.06;5108111;28;20670;-64
2022/12/05 07:23:42;;;;;;;35.43;18.67;;;;;;;8.91;100.00;100599.50;5105527;28;20218;-63
2022/12/05 07:26:10;;;;;;;37.23;19.47;;;;;;;8.91;100.00;100596.91;5107286;28;20209;-63
2022/12/05 07:28:37;;;;;;;39.23;20.17;;;;;;;9.11;100.00;100600.25;5108116;28;20198;-63
2022/12/05 07:31:06;;;;;;;34.97;20.83;;;;;;;9.02;100.00;100584.78;5108158;28;20191;-72
2022/12/05 07:33:34;;;;;;;44.33;22.43;;;;;;;9.23;100.00;100607.97;5107971;28;20214;-71
2022/12/05 07:36:01;;;;;;;42.67;22.73;;;;;;;9.19;100.00;100585.53;5102528;28;20198;-73
2022/12/05 07:38:30;;;;;;;42.93;23.43;;;;;;;9.34;100.00;100603.56;5107924;28;20218;-71
2022/12/05 07:40:57;;;;;;;39.67;21.40;;;;;;;9.36;100.00;100607.03;5108297;28;20197;-72
2022/12/05 07:43:24;;;;;;;41.83;20.80;;;;;;;9.24;100.00;100607.09;5108116;28;20285;-73
2022/12/05 07:45:51;;;;;;;48.87;21.80;;;;;;;9.30;100.00;100607.03;5107992;28;20244;-72
2022/12/05 07:48:18;;;;;;;51.30;24.97;;;;;;;9.37;100.00;100608.72;5107877;28;20277;-71
2022/12/05 07:50:45;;;;;;;43.13;22.57;;;;;;;9.24;100.00;100607.09;5108469;28;20206;-72
2022/12/05 07:53:12;;;;;;;47.50;21.37;;;;;;;9.24;100.00;100599.31;5108170;28;20317;-72
2022/12/05 07:55:40;;;;;;;39.90;21.20;;;;;;;9.13;100.00;100600.25;5109070;28;20645;-73
2022/12/05 07:58:07;;;;;;;33.27;20.50;;;;;;;9.17;100.00;100599.34;5109206;28;20210;-73
2022/12/05 08:00:34;;;;;;;37.90;20.50;;;;;;;9.34;100.00;100603.56;5109480;28;20198;-64
2022/12/05 08:03:02;;;;;;;38.93;20.83;;;;;;;9.28;100.00;100611.38;5109089;28;20315;-63
2022/12/05 08:05:29;;;;;;;41.70;22.53;;;;;;;9.29;100.00;100604.47;5109244;28;20199;-64
2022/12/05 08:07:56;;;;;;;45.60;22.33;;;;;;;9.23;100.00;100610.56;5108334;28;20202;-63
2022/12/05 08:10:23;;;;;;;40.97;20.90;;;;;;;9.39;100.00;100612.16;5108447;28;20193;-63
2022/12/05 08:12:51;;;;;;;39.73;20.07;;;;;;;9.42;100.00;100611.28;5110342;28;20669;-63
2022/12/05 08:15:18;;;;;;;38.43;21.50;;;;;;;9.40;100.00;100607.84;5112101;28;20191;-65
2022/12/05 08:17:45;;;;;;;41.80;22.23;;;;;;;9.49;100.00;100607.78;5113089;28;20286;-60
2022/12/05 08:20:13;;;;;;;48.13;23.50;;;;;;;9.50;100.00;100604.31;5113218;28;20226;-62
2022/12/05 08:22:40;;;;;;;52.03;29.80;;;;;;;9.53;100.00;100616.41;5113484;28;20190;-61
2022/12/05 08:25:08;;;;;;;58.63;28.87;;;;;;;9.41;100.00;100613.03;5112918;28;20202;-61
2022/12/05 08:27:34;;;;;;;48.80;24.80;;;;;;;9.35;100.00;100607.91;5113502;27;20575;-61
2022/12/05 08:30:03;;;;;;;43.67;24.17;;;;;;;9.30;100.00;100598.41;5097729;28;20211;-62
2022/12/05 08:32:30;;;;;;;55.27;27.30;;;;;;;9.40;100.00;100600.94;5092732;28;20230;-61
2022/12/05 08:34:57;;;;;;;49.57;28.50;;;;;;;9.55;100.00;100601.69;5092991;28;20283;-60
2022/12/05 08:37:24;;;;;;;52.23;26.63;;;;;;;9.61;100.00;100594.72;5092216;28;20221;-67
2022/12/05 08:39:51;;;;;;;51.37;28.60;;;;;;;9.63;100.00;100593.00;5092157;28;20191;-68
2022/12/05 08:42:18;;;;;;;53.83;31.53;;;;;;;9.70;100.00;100591.22;5091598;28;20203;-68
2022/12/05 08:44:45;;;;;;;52.30;29.07;;;;;;;9.76;100.00;100596.34;5091258;28;20198;-67
2022/12/05 08:47:13;;;;;;;52.47;29.57;;;;;;;9.66;100.00;100592.13;5091517;28;20636;-67
2022/12/05 08:49:40;;;;;;;55.17;29.67;;;;;;;9.60;100.00;100584.38;5092115;28;20210;-68
2022/12/05 08:52:07;;;;;;;57.17;29.77;;;;;;;9.50;100.00;100574.94;5091800;28;20574;-60
2022/12/05 08:54:34;;;;;;;49.87;29.03;;;;;;;9.75;100.00;100584.25;5096968;28;20214;-58
2022/12/05 08:57:01;;;;;;;53.53;26.53;;;;;;;9.83;100.00;100582.44;5108924;28;20202;-59
2022/12/05 08:59:28;;;;;;;49.83;28.83;;;;;;;9.96;100.00;100563.31;5112102;28;20202;-63
2022/12/05 09:01:54;;;;;;;67.40;37.27;;;;;;;10.12;100.00;100577.88;5111426;28;20198;-62
2022/12/05 09:04:24;;;;;;;42.27;22.70;;;;;;;10.10;100.00;100566.63;5110663;27;20186;-61
2022/12/05 09:06:51;;;;;;;47.27;24.63;;;;;;;10.12;100.00;100575.28;5111973;28;20583;-66
2022/12/05 09:09:18;;;;;;;48.33;24.47;;;;;;;10.30;100.00;100568.19;5111828;28;20194;-62
2022/12/05 09:11:48;;;;;;;40.97;22.97;;;;;;;10.29;100.00;100561.28;5111817;28;20195;-62
2022/12/05 09:14:15;;;;;;;39.47;24.83;;;;;;;10.27;100.00;100566.47;5111439;28;20226;-59
2022/12/05 09:16:44;;;;;;;39.90;23.23;;;;;;;10.27;100.00;100569.06;5111911;28;20191;-67
2022/12/05 09:19:13;;;;;;;45.77;23.30;;;;;;;10.27;100.00;100565.66;5111194;28;20245;-67
2022/12/05 09:21:42;;;;;;;49.53;29.47;;;;;;;10.21;100.00;100561.38;5110424;28;20191;-68
2022/12/05 09:24:10;;;;;;;41.30;25.13;;;;;;;10.16;100.00;100561.38;5110335;28;20666;-60
2022/12/05 09:26:37;;;;;;;36.90;24.23;;;;;;;10.10;100.00;100558.00;5111517;28;20730;-59
2022/12/05 09:29:04;;;;;;;47.00;26.23;;;;;;;10.01;100.00;100552.91;5112042;28;20201;-59
2022/12/05 09:31:31;;;;;;;42.13;26.30;;;;;;;10.02;100.00;100552.03;5111661;28;20209;-58
2022/12/05 09:33:58;;;;;;;40.10;25.70;;;;;;;10.09;100.00;100544.16;5111525;28;20214;-59
2022/12/05 09:36:26;;;;;;;54.20;29.33;;;;;;;10.22;100.00;100541.47;5110401;28;20198;-60
2022/12/05 09:38:58;;;;;;;71.60;38.90;;;;;;;10.32;100.00;100540.50;5111723;28;20221;-60
2022/12/05 09:44:41;;;;;;;65.07;38.87;;;;;;;10.65;100.00;100536.63;5111312;28;20185;-59
2022/12/05 09:47:16;;;;;;;56.37;33.73;;;;;;;10.65;100.00;100526.25;5111068;28;20195;-61
2022/12/05 09:49:50;;;;;;;55.73;33.23;;;;;;;10.56;100.00;100529.81;5110982;28;20582;-59
2022/12/05 09:52:25;;;;;;;57.43;32.87;;;;;;;10.53;100.00;100529.84;5110855;28;20191;-60
2022/12/05 09:54:54;;;;;;;52.50;31.03;;;;;;;10.53;100.00;100530.72;5110976;28;20214;-59
2022/12/05 09:57:28;;;;;;;52.73;30.47;;;;;;;10.58;100.00;100533.25;5110810;28;20206;-59
2022/12/05 09:59:55;;;;;;;48.60;30.47;;;;;;;10.43;100.00;100531.72;5110660;28;20288;-58
2022/12/05 10:02:34;;;;;;;65.40;39.43;;;;;;;10.43;100.00;100518.72;5110169;28;20195;-59
2022/12/05 10:05:06;;;;;;;60.20;33.67;;;;;;;10.39;100.00;100523.97;5110679;28;20205;-59
2022/12/05 10:07:39;;;;;;;52.57;30.13;;;;;;;10.27;100.00;100521.53;5111068;28;20205;-58
2022/12/05 10:10:25;;;;;;;46.43;27.00;;;;;;;10.07;100.00;100524.31;5110451;28;20297;-60
2022/12/05 10:13:28;;;;;;;26.63;17.33;;;;;;;10.14;100.00;100523.38;5112184;28;20690;-60
2022/12/05 10:15:59;;;;;;;39.33;24.43;;;;;;;10.17;100.00;100519.00;5110064;28;20230;-68
2022/12/05 10:18:37;;;;;;;53.83;28.77;;;;;;;10.26;100.00;100530.19;5110532;28;20205;-68
2022/12/05 10:21:10;;;;;;;33.10;22.63;;;;;;;10.22;100.00;100524.19;5110208;28;20230;-68
2022/12/05 10:23:43;;;;;;;35.93;23.03;;;;;;;10.25;100.00;100520.69;5110181;28;20198;-59
2022/12/05 10:26:14;;;;;;;37.63;22.37;;;;;;;10.19;100.00;100534.56;5110151;28;20205;-58
2022/12/05 10:28:51;;;;;;;38.80;24.83;;;;;;;10.26;100.00;100528.47;5110361;28;20198;-68
2022/12/05 10:31:24;;;;;;;36.93;23.47;;;;;;;10.43;100.00;100523.91;5110422;28;20194;-68
2022/12/05 10:34:03;;;;;;;31.20;21.23;;;;;;;10.29;100.00;100486.03;5110319;28;20220;-69
2022/12/05 10:36:30;;;;;;;34.77;22.20;;;;;;;10.66;100.00;100510.66;5110053;28;20200;-68
2022/12/05 10:38:59;;;;;;;37.20;21.93;;;;;;;10.64;100.00;100507.22;5110506;28;20559;-69
2022/12/05 10:41:28;;;;;;;35.67;23.17;;;;;;;10.87;100.00;100499.97;5110130;28;20206;-69
2022/12/05 10:43:58;;;;;;;37.93;22.43;;;;;;;10.96;100.00;100500.69;5109875;28;20206;-68
2022/12/05 10:46:26;;;;;;;38.00;22.63;;;;;;;11.15;100.00;100496.97;5101809;28;20264;-66
2022/12/05 10:48:54;;;;;;;37.20;23.63;;;;;;;11.23;100.00;100488.16;5091242;28;20220;-67
2022/12/05 10:51:28;;;;;;;40.43;22.50;;;;;;;11.32;100.00;100487.16;5109088;28;20209;-67
2022/12/05 10:53:56;;;;;;;34.40;21.63;;;;;;;11.20;100.00;100487.34;5109158;28;20233;-67
2022/12/05 10:56:44;;;;;;;32.60;18.47;;;;;;;11.15;100.00;100478.78;5105371;28;20219;-67
2022/12/05 10:59:14;;;;;;;30.73;18.43;;;;;;;11.03;100.00;100484.16;5089348;28;20227;-60
2022/12/05 11:01:46;;;;;;;29.37;19.60;;;;;;;11.10;100.00;100477.97;5088726;28;20225;-58
2022/12/05 11:04:26;;;;;;;34.07;19.10;;;;;;;11.03;100.00;100468.56;5088378;28;20215;-67
2022/12/05 11:06:56;;;;;;;26.80;18.23;;;;;;;11.05;100.00;100451.22;5088784;28;20300;-61
2022/12/05 11:09:26;;;;;;;27.70;17.93;;;;;;;11.10;100.00;100460.66;5088772;28;20223;-66
2022/12/05 11:12:14;;;;;;;37.37;20.67;;;;;;;10.98;100.00;100442.66;5103417;28;20704;-66
2022/12/05 11:14:54;;;;;;;27.20;17.50;;;;;;;11.04;100.00;100460.75;5109019;28;20219;-65
2022/12/05 11:17:25;;;;;;;30.70;18.53;;;;;;;11.04;100.00;100457.31;5109289;28;20590;-65
2022/12/05 11:19:52;;;;;;;34.43;17.70;;;;;;;11.12;100.00;100455.44;5109873;28;20230;-66
2022/12/05 11:22:20;;;;;;;31.87;18.23;;;;;;;11.14;100.00;100443.28;5109503;28;20195;-65
2022/12/05 11:24:47;;;;;;;39.93;25.70;;;;;;;11.21;100.00;100450.94;5110052;28;20189;-66
2022/12/05 11:27:27;;;;;;;35.53;22.63;;;;;;;11.12;100.00;100450.25;5109769;28;20697;-65
2022/12/05 11:29:58;;;;;;;28.07;19.00;;;;;;;11.06;100.00;100445.16;5110107;28;20688;-65
2022/12/05 11:32:26;;;;;;;24.60;18.17;;;;;;;11.10;100.00;100439.88;5109816;28;20671;-67